Zorg en Hoop Airport

Jump to: basic info | weather | comments

Related pages: nearby airports | nearby navaids | notams | map

Basic information (top)

Codes: ORG SMZO
Location: lon 5.811080, lat -55.190701, elev 10 ft / 3 m msl
Status: small_airport

Weather (top)

Current conditions (rec'd 2014/04/20 15:00Z):

SMZO 201500Z 09006KT 9999 FEW020CB 30/23 Q1014 NOSIG

Airport forecast (rec'd 2014/04/15 06:06Z):

TAF TAF SMZO 150400Z 1506/1606 VRB02KT 9999 FEW010 SCT030 TX30/1517Z TN24/1510Z PROB40 
      TEMPO 1510/1514 5000 SCT015 BKN030 
      TEMPO 1518/1522 3000 FEW010 FEW015CB BKN020

Latest comments (top)

KLM flights from Caracas - Paramaribo - Dakar - Madrid - fra: I would like to know if this airport ... [read]

More... (top)

See also NOTAMs and nearby airports and navaids, or visit the Zorg en Hoop Airport page at the main OurAirports website..